Buena Vista, New Mexico
Current Conditions -  °F | °C
As of 11:53 AM on Monday 22 Dec 2014 (Local Time) from KLVS Reporting Station
Clear Clear  
Wind Chill: 53°   Ceiling: Unl
Heat Index: 53°   Visibility: 10mi
Dew Point: 21°   Wind: 25mph
Humidity: 29%   Direction: 300°WNW
Pressure: 29.69"   Gusts: 39mph
Location:  35.91°N, 105.25°W
Report Text: KLVS 221853Z AUTO 30022G34KT 10SM CLR 12/M06 A2969 RMK AO2 PK WND 30042/1804 SLP996 T01171061
Loading
Personal Weather Stations






























Interactive Weather Map New forecast layout! Learn more

10-Day Weather Forecast

Advertisements
Track Severe Weather on mobile